Time;durP1;ratioP1;P1;durP2;ratioP2;P2;SDS_P1;SDS_P2;PMS_P1;PMS_P2;Temp;Humidity;BMP_temperature;BMP_pressure;BME280_temperature;BME280_humidity;BME280_pressure;Samples;Min_cycle;Max_cycle;Signal;HPM_P1;HPM_P2
2022/01/24 00:02:15;;;;;;;22.35;19.88;;;7.70;99.90;;;7.94;68.19;103390.63;5072404;28;20167;-61
2022/01/24 00:04:43;;;;;;;22.63;18.63;;;7.70;99.90;;;7.90;68.08;103389.56;5072106;28;20041;-61
2022/01/24 00:07:14;;;;;;;23.88;19.17;;;7.70;99.90;;;7.96;67.42;103381.97;5071681;28;20110;-61
2022/01/24 00:09:42;;;;;;;21.25;18.88;;;7.80;99.90;;;7.94;67.37;103380.06;5072410;28;20068;-61
2022/01/24 00:12:17;;;;;;;22.85;19.35;;;7.80;99.90;;;8.00;67.21;103383.91;5072540;28;20139;-61
2022/01/24 00:15:00;;;;;;;22.98;18.67;;;7.80;99.90;;;8.05;67.23;103387.66;5072298;28;20560;-61
2022/01/24 00:17:35;;;;;;;23.02;18.42;;;7.90;99.90;;;7.82;67.12;103384.78;5071805;28;20490;-61
2022/01/24 00:28:28;;;;;;;22.08;18.42;;;7.60;99.90;;;7.44;68.08;103369.78;5046114;28;20135;-60
2022/01/24 00:30:58;;;;;;;22.92;18.92;;;7.40;99.90;;;7.73;67.75;103369.44;5071921;28;20094;-60
2022/01/24 00:33:27;;;;;;;22.70;18.85;;;7.50;99.90;;;7.86;67.50;103369.19;5071902;28;20358;-60
2022/01/24 00:35:55;;;;;;;22.13;19.52;;;7.60;99.90;;;7.99;67.33;103368.03;5071647;28;20462;-60
2022/01/24 00:38:23;;;;;;;23.70;19.48;;;7.80;99.90;;;7.74;67.79;103362.44;5071890;28;20057;-60
2022/01/24 00:40:52;;;;;;;24.15;19.77;;;7.60;99.90;;;7.69;67.59;103363.94;5071782;28;20124;-61
2022/01/24 00:43:28;;;;;;;25.48;19.42;;;7.50;99.90;;;7.61;68.00;103360.03;5071436;28;20052;-60
2022/01/24 00:46:02;;;;;;;24.08;19.67;;;7.50;99.90;;;7.72;67.50;103366.75;5071538;28;20044;-61
2022/01/24 00:54:42;;;;;;;27.90;20.88;;;7.30;99.90;;;7.18;68.53;103365.00;5032549;28;20157;-60
2022/01/24 00:57:05;;;;;;;26.15;20.05;;;7.10;99.90;;;7.40;67.99;103373.09;5071277;28;20456;-61
2022/01/24 00:59:33;;;;;;;27.50;22.20;;;7.20;99.90;;;7.67;68.51;103366.50;5071511;28;20070;-60
2022/01/24 01:02:04;;;;;;;29.38;22.80;;;7.40;99.90;;;7.53;68.02;103372.84;5071265;28;20113;-60
2022/01/24 01:04:41;;;;;;;;;;;7.40;99.90;;;7.25;68.75;103364.44;5072019;28;20414;-60
2022/01/24 01:07:10;;;;;;;30.65;23.00;;;7.10;99.90;;;7.59;67.71;103367.88;5071250;28;19956;-60
2022/01/24 01:18:14;;;;;;;35.30;25.85;;;7.30;99.90;;;7.42;68.52;103363.53;5029235;28;20524;-60
2022/01/24 01:21:07;;;;;;;35.00;24.98;;;7.30;99.90;;;7.60;68.67;103358.25;5067322;28;20072;-60
2022/01/24 01:23:40;;;;;;;36.70;26.45;;;7.40;99.90;;;7.79;67.41;103360.91;5075676;28;20132;-60
2022/01/24 01:26:15;;;;;;;37.42;26.80;;;7.60;99.90;;;7.63;68.28;103358.38;5075556;28;20371;-60
2022/01/24 01:28:46;;;;;;;37.70;26.48;;;7.50;99.90;;;7.54;68.98;103353.59;5075273;28;20044;-60
2022/01/24 01:31:25;;;;;;;36.78;27.30;;;7.40;99.90;;;7.52;68.94;103376.31;5075318;28;20049;-61
2022/01/24 01:34:04;;;;;;;33.13;24.92;;;7.40;99.90;;;7.60;69.07;103358.25;5075517;28;20409;-61
2022/01/24 01:37:03;;;;;;;42.08;29.05;;;7.40;99.90;;;7.51;69.37;103358.69;5075226;28;20117;-60
2022/01/24 01:39:51;;;;;;;39.28;27.95;;;7.40;99.90;;;7.60;69.90;103366.16;5075109;28;20036;-60
2022/01/24 01:56:16;;;;;;;42.92;29.35;;;7.10;99.90;;;7.39;69.76;103341.44;5069929;28;20139;-60
2022/01/24 01:58:44;;;;;;;43.67;30.40;;;7.30;99.90;;;7.57;69.83;103352.84;5074320;28;20064;-60
2022/01/24 02:01:13;;;;;;;42.03;28.83;;;7.40;99.90;;;7.36;70.81;103347.44;5074323;28;20041;-60
2022/01/24 02:03:42;;;;;;;40.55;28.23;;;7.30;99.90;;;7.19;71.13;103353.63;5074475;28;20056;-60
2022/01/24 02:06:12;;;;;;;40.88;28.13;;;7.10;99.90;;;7.32;70.83;103339.34;5074213;28;20098;-60
2022/01/24 02:08:41;;;;;;;39.58;28.83;;;7.20;99.90;;;7.61;69.92;103355.69;5074626;28;20052;-60
2022/01/24 02:11:14;;;;;;;40.33;28.80;;;7.40;99.90;;;7.28;70.23;103325.09;5074066;28;20613;-60
2022/01/24 02:13:43;;;;;;;39.28;28.25;;;7.20;99.90;;;7.30;69.72;103352.41;5074099;28;20053;-61
2022/01/24 02:16:18;;;;;;;42.13;28.85;;;7.20;99.90;;;7.46;69.47;103349.69;5074196;28;20185;-60
2022/01/24 02:18:53;;;;;;;37.00;27.45;;;7.30;99.90;;;7.59;69.29;103359.97;5073955;28;20529;-60
2022/01/24 02:21:39;;;;;;;40.55;28.90;;;7.40;99.90;;;7.68;68.88;103338.44;5074127;28;20458;-61
2022/01/24 02:24:09;;;;;;;39.42;29.05;;;7.50;99.90;;;7.69;68.99;103343.78;5073775;28;20127;-60
2022/01/24 02:26:39;;;;;;;38.40;27.98;;;7.50;99.90;;;7.51;69.23;103337.63;5073745;28;20088;-61
2022/01/24 02:29:13;;;;;;;39.75;27.75;;;7.40;99.90;;;7.55;70.07;103341.34;5073219;28;20139;-60
2022/01/24 02:31:44;;;;;;;40.97;29.40;;;7.40;99.90;;;7.62;69.47;103336.44;5074326;28;20049;-61
2022/01/24 02:34:29;;;;;;;39.25;28.77;;;7.40;99.90;;;7.54;69.32;103335.16;5073800;28;20052;-61
2022/01/24 02:37:04;;;;;;;39.35;28.50;;;7.40;99.90;;;7.37;69.95;103337.81;5073762;28;20072;-61
2022/01/24 02:39:46;;;;;;;38.55;28.25;;;7.20;99.90;;;7.45;69.63;103334.75;5073889;28;20048;-61
2022/01/24 02:53:26;;;;;;;40.15;27.80;;;7.60;99.90;;;7.76;68.94;103350.25;5074008;28;20127;-61
2022/01/24 02:55:54;;;;;;;;;;;7.60;99.90;;;7.96;68.67;103323.97;5073950;28;20053;-61
2022/01/24 02:58:23;;;;;;;38.20;27.05;;;7.60;99.90;;;8.17;68.26;103321.41;5073858;28;20014;-61
2022/01/24 03:00:53;;;;;;;38.80;27.85;;;7.80;99.90;;;8.36;67.29;103317.91;5073932;28;20463;-61
2022/01/24 03:03:22;;;;;;;40.50;28.88;;;8.10;99.90;;;8.47;66.99;103327.16;5073266;28;20490;-61
2022/01/24 03:05:51;;;;;;;39.90;29.30;;;8.20;99.90;;;8.51;67.02;103331.75;5073142;28;20550;-61
2022/01/24 03:08:22;;;;;;;40.42;30.10;;;8.30;99.90;;;8.59;67.60;103319.78;5073687;28;20044;-60
2022/01/24 03:10:53;;;;;;;;;;;8.40;99.90;;;8.65;67.31;103320.06;5073511;28;20048;-61
2022/01/24 03:13:32;;;;;;;;;;;8.50;99.90;;;8.66;67.37;103316.56;5073773;28;19970;-61
2022/01/24 03:16:05;;;;;;;38.27;29.33;;;8.50;99.90;;;8.48;67.64;103311.41;5073045;28;19931;-61
2022/01/24 03:18:34;;;;;;;41.28;31.45;;;8.40;99.90;;;8.58;67.62;103312.69;5072800;28;20051;-61
2022/01/24 03:21:03;;;;;;;42.50;33.28;;;8.30;99.90;;;8.47;67.77;103296.41;5073047;28;20044;-61
2022/01/24 03:23:31;;;;;;;42.58;32.80;;;8.40;99.90;;;8.59;68.20;103306.59;5072688;28;20048;-61
2022/01/24 03:26:01;;;;;;;44.67;33.40;;;8.40;99.90;;;8.57;68.17;103305.63;5072958;28;20253;-61
2022/01/24 03:28:30;;;;;;;41.65;32.70;;;8.40;99.90;;;8.43;67.56;103310.31;5072730;28;20083;-61
2022/01/24 03:30:58;;;;;;;40.78;31.55;;;8.40;99.90;;;8.32;67.68;103306.31;5072606;28;20102;-61
2022/01/24 03:33:26;;;;;;;41.50;32.45;;;8.30;99.90;;;8.29;67.87;103303.53;5073074;28;20088;-61
2022/01/24 03:35:54;;;;;;;43.17;33.33;;;8.20;99.90;;;8.32;68.29;103308.03;5072691;28;20135;-61
2022/01/24 03:38:23;;;;;;;41.20;32.42;;;8.20;99.90;;;8.40;68.67;103296.97;5072645;28;20131;-60
2022/01/24 03:40:52;;;;;;;45.03;34.80;;;8.20;99.90;;;8.45;68.60;103295.44;5071386;28;20044;-60
2022/01/24 03:43:21;;;;;;;44.17;33.38;;;8.20;99.90;;;8.46;68.13;103291.09;5072877;28;20140;-61
2022/01/24 03:46:10;;;;;;;43.35;33.05;;;8.30;99.90;;;8.37;68.67;103296.84;5072525;28;20129;-61
2022/01/24 03:48:43;;;;;;;44.85;35.20;;;8.20;99.90;;;8.46;68.28;103291.09;5072329;28;20051;-61
2022/01/24 03:51:12;;;;;;;42.22;34.10;;;8.20;99.90;;;8.39;68.07;103299.56;5072554;28;20048;-61
2022/01/24 03:53:43;;;;;;;45.33;34.35;;;8.20;99.90;;;8.47;68.29;103292.88;5072137;28;20120;-61
2022/01/24 03:56:11;;;;;;;44.25;34.42;;;8.20;99.90;;;8.52;67.84;103297.50;5072132;28;20071;-61
2022/01/24 03:58:42;;;;;;;46.63;35.63;;;8.20;99.90;;;8.52;68.00;103299.22;5072044;28;20052;-61
2022/01/24 04:01:11;;;;;;;42.85;34.35;;;8.30;99.90;;;8.50;67.48;103272.78;5072648;28;20083;-61
2022/01/24 04:03:42;;;;;;;42.33;32.75;;;8.40;99.90;;;8.66;67.83;103301.63;5072078;28;20052;-61
2022/01/24 04:06:10;;;;;;;44.40;34.58;;;8.40;99.90;;;8.74;67.09;103294.94;5072314;28;20109;-61
2022/01/24 04:08:39;;;;;;;44.75;33.33;;;8.50;99.90;;;8.75;66.79;103301.16;5071919;28;20486;-60
2022/01/24 04:11:11;;;;;;;44.70;34.00;;;8.50;99.90;;;8.78;66.90;103301.25;5071991;28;20085;-61
2022/01/24 04:13:44;;;;;;;43.42;33.50;;;8.50;99.90;;;8.80;66.59;103304.84;5072160;28;20455;-61
2022/01/24 04:16:25;;;;;;;46.33;34.60;;;8.50;99.90;;;8.87;66.21;103301.63;5072041;28;20068;-61
2022/01/24 04:19:01;;;;;;;47.92;35.25;;;8.60;99.90;;;8.94;65.72;103299.31;5072114;28;20410;-61
2022/01/24 04:21:31;;;;;;;43.90;33.95;;;8.70;99.90;;;8.88;65.64;103301.69;5071154;28;20160;-61
2022/01/24 04:24:05;;;;;;;45.80;33.20;;;8.60;99.90;;;8.78;65.76;103302.16;5072537;28;20115;-61
2022/01/24 04:26:36;;;;;;;45.22;32.80;;;8.50;99.90;;;8.80;66.12;103311.03;5072397;28;20057;-61
2022/01/24 04:29:08;;;;;;;44.97;32.80;;;8.50;99.90;;;8.64;66.46;103302.41;5071752;28;20207;-61
2022/01/24 04:31:37;;;;;;;48.30;33.20;;;8.40;99.90;;;8.41;66.57;103282.06;5071759;28;20109;-61
2022/01/24 04:34:05;;;;;;;44.28;32.28;;;8.30;99.90;;;8.61;66.45;103297.00;5070460;28;20041;-61
2022/01/24 04:36:34;;;;;;;44.92;32.85;;;8.30;99.90;;;8.56;66.42;103295.91;5072064;28;20040;-61
2022/01/24 04:39:03;;;;;;;44.25;32.50;;;8.30;99.90;;;8.42;66.73;103305.84;5071967;28;20152;-60
2022/01/24 04:41:35;;;;;;;46.45;34.92;;;8.20;99.90;;;7.78;67.96;103236.19;5070316;28;20078;-60
2022/01/24 04:44:13;;;;;;;46.25;34.45;;;8.00;99.90;;;8.08;68.36;103302.53;5072037;28;20255;-61
2022/01/24 04:46:56;;;;;;;44.50;33.15;;;7.80;99.90;;;7.71;68.95;103273.63;5071515;28;20048;-61
2022/01/24 04:52:20;;;;;;;46.55;33.13;;;7.60;99.90;;;7.98;69.61;103287.16;5071309;28;20049;-61
2022/01/24 04:54:48;;;;;;;45.92;32.00;;;7.70;99.90;;;7.94;69.59;103293.09;5071338;28;20188;-61
2022/01/24 04:57:19;;;;;;;45.97;33.15;;;7.80;99.90;;;7.92;70.11;103290.41;5071254;28;20036;-61
2022/01/24 04:59:50;;;;;;;46.75;34.30;;;7.80;99.90;;;8.02;70.32;103297.91;5071255;28;20071;-61
2022/01/24 05:02:21;;;;;;;46.50;33.33;;;7.80;99.90;;;7.94;70.00;103290.47;5071265;28;20506;-61
2022/01/24 05:04:52;;;;;;;49.35;34.80;;;7.70;99.90;;;7.90;70.37;103289.44;5071493;28;20044;-61
2022/01/24 05:07:21;;;;;;;45.70;33.13;;;7.60;99.90;;;7.92;70.37;103290.41;5071175;28;20384;-61
2022/01/24 05:09:56;;;;;;;46.22;34.08;;;7.60;99.90;;;8.02;70.24;103294.34;5071076;28;20094;-60
2022/01/24 05:12:34;;;;;;;50.75;35.40;;;7.70;99.90;;;7.73;71.39;103290.41;5071511;28;20056;-62
2022/01/24 05:23:31;;;;;;;51.08;36.22;;;7.30;99.90;;;7.50;72.10;103293.72;5071066;28;20044;-61
2022/01/24 05:26:02;;;;;;;50.65;36.47;;;7.30;99.90;;;7.45;72.38;103284.72;5071312;28;20052;-61
2022/01/24 05:28:33;;;;;;;50.33;35.55;;;7.20;99.90;;;7.28;72.24;103259.28;5071631;28;20075;-61
2022/01/24 05:31:04;;;;;;;49.75;36.03;;;7.20;99.90;;;7.59;71.88;103288.88;5071298;28;20048;-61
2022/01/24 05:33:33;;;;;;;;;;;7.30;99.90;;;7.71;71.38;103281.53;5071508;28;20071;-61
2022/01/24 05:36:01;;;;;;;48.33;34.60;;;7.50;99.90;;;7.84;70.67;103281.25;5070993;28;19924;-61
2022/01/24 05:38:30;;;;;;;48.00;34.58;;;7.60;99.90;;;7.93;69.96;103279.06;5071020;28;20048;-61
2022/01/24 05:41:02;;;;;;;51.60;36.03;;;7.70;99.90;;;7.99;69.70;103286.34;5071426;28;20056;-61
2022/01/24 05:43:30;;;;;;;50.03;35.63;;;7.70;99.90;;;8.13;68.92;103282.53;5071007;28;20079;-61
2022/01/24 05:45:59;;;;;;;50.97;35.80;;;7.90;99.90;;;8.19;69.14;103289.00;5071019;28;20071;-61
2022/01/24 05:48:29;;;;;;;50.13;33.97;;;7.90;99.90;;;7.91;69.39;103283.34;5071312;28;20045;-61
2022/01/24 05:50:57;;;;;;;47.77;33.60;;;7.80;99.90;;;7.54;70.05;103279.84;5071191;28;20143;-61
2022/01/24 05:53:25;;;;;;;45.95;33.70;;;7.40;99.90;;;7.69;70.33;103285.84;5071066;28;20189;-61
2022/01/24 05:55:54;;;;;;;47.63;33.17;;;7.40;99.90;;;7.44;69.80;103282.88;5071105;28;20466;-61
2022/01/24 05:58:23;;;;;;;48.75;33.95;;;7.30;99.90;;;7.22;69.74;103280.97;5070946;28;20076;-61
2022/01/24 06:00:51;;;;;;;51.42;35.08;;;7.20;99.90;;;7.14;70.92;103287.59;5071184;28;20054;-61
2022/01/24 06:03:21;;;;;;;48.33;33.78;;;7.00;99.90;;;6.78;71.14;103284.88;5070722;28;20049;-61
2022/01/24 06:05:51;;;;;;;49.17;34.63;;;6.70;99.90;;;6.80;71.70;103293.75;5073492;28;20068;-61
2022/01/24 06:08:19;;;;;;;49.23;34.50;;;6.60;99.90;;;6.70;72.15;103295.03;5074321;28;20474;-61
2022/01/24 06:10:48;;;;;;;42.00;30.73;;;6.50;99.90;;;6.74;71.00;103298.72;5074442;28;20074;-61
2022/01/24 06:13:17;;;;;;;48.05;33.45;;;6.60;99.90;;;6.98;70.13;103297.31;5074260;28;20414;-61
2022/01/24 06:15:45;;;;;;;46.90;32.20;;;6.80;99.90;;;6.88;69.67;103302.94;5074056;28;20440;-61
2022/01/24 06:18:13;;;;;;;46.47;33.35;;;6.70;99.90;;;7.09;69.18;103304.00;5073934;28;20036;-61
2022/01/24 06:20:44;;;;;;;73.40;39.50;;;6.90;99.90;;;7.11;69.11;103300.63;5074195;28;20086;-61
2022/01/24 06:23:15;;;;;;;50.60;35.40;;;6.90;99.90;;;6.94;69.53;103303.25;5089681;28;20478;-61
2022/01/24 06:25:44;;;;;;;55.30;37.60;;;6.80;99.90;;;7.02;69.85;103315.97;5073712;28;20091;-61
2022/01/24 06:28:13;;;;;;;58.05;38.17;;;6.90;99.90;;;7.05;69.92;103308.22;5073782;28;20131;-61
2022/01/24 06:30:41;;;;;;;51.97;35.40;;;6.90;99.90;;;7.36;69.36;103305.31;5073711;28;20036;-61
2022/01/24 06:33:09;;;;;;;52.78;36.95;;;7.00;99.90;;;7.04;69.10;103308.13;5073984;28;20125;-61
2022/01/24 06:35:38;;;;;;;53.97;37.13;;;7.00;99.90;;;6.87;69.63;103301.16;5073655;28;20131;-61
2022/01/24 06:38:06;;;;;;;54.75;38.10;;;6.80;99.90;;;7.27;68.84;103274.22;5089337;28;20098;-61
2022/01/24 06:40:36;;;;;;;59.05;40.45;;;7.00;99.90;;;7.67;68.41;103302.38;5073568;28;20466;-61
2022/01/24 06:43:05;;;;;;;64.32;43.42;;;7.40;99.90;;;7.82;67.56;103306.63;5073835;28;20078;-61
2022/01/24 06:45:33;;;;;;;65.30;42.50;;;7.60;99.90;;;7.89;67.97;103305.19;5073748;28;20471;-61
2022/01/24 06:48:02;;;;;;;62.45;41.58;;;7.60;99.90;;;8.02;67.57;103303.19;5073553;28;20129;-61
2022/01/24 06:50:30;;;;;;;71.82;47.40;;;7.80;99.90;;;8.07;67.19;103300.75;5073438;28;20044;-61
2022/01/24 06:52:59;;;;;;;77.40;50.30;;;7.80;99.90;;;7.83;68.36;103311.09;5073477;28;20144;-61
2022/01/24 06:55:27;;;;;;;73.55;47.90;;;7.70;99.90;;;7.82;67.92;103305.75;5073331;28;20048;-61
2022/01/24 06:57:57;;;;;;;78.28;51.80;;;7.60;99.90;;;7.92;67.42;103311.50;5073373;28;20140;-60
2022/01/24 07:00:26;;;;;;;87.90;55.10;;;7.70;99.90;;;7.91;67.86;103314.97;5073547;28;20494;-60
2022/01/24 07:02:56;;;;;;;84.90;53.38;;;7.70;99.90;;;7.84;68.18;103318.16;5073365;28;20068;-60
2022/01/24 07:05:27;;;;;;;83.10;54.17;;;7.60;99.90;;;7.88;68.38;103320.09;5073166;28;20241;-61
2022/01/24 07:07:56;;;;;;;84.40;54.08;;;7.70;99.90;;;7.85;68.41;103314.69;5073448;28;20049;-61
2022/01/24 07:10:25;;;;;;;84.78;53.83;;;7.70;99.90;;;7.54;68.81;103327.25;5073482;28;20140;-61
2022/01/24 07:12:59;;;;;;;89.00;57.17;;;7.40;99.90;;;7.59;68.66;103335.41;5073752;28;20048;-60
2022/01/24 07:15:33;;;;;;;86.93;54.63;;;7.40;99.90;;;7.76;68.49;103323.91;5072617;28;20044;-60
2022/01/24 07:18:57;;;;;;;86.18;54.13;;;7.50;99.90;;;7.99;68.01;103329.38;5073042;28;20064;-60
2022/01/24 07:21:07;;;;;;;85.15;54.53;;;7.70;99.90;;;7.97;67.22;103325.81;5072607;28;20141;-60
2022/01/24 07:23:35;;;;;;;86.30;55.10;;;7.70;99.90;;;7.95;68.04;103330.09;5072816;28;20052;-60
2022/01/24 07:26:04;;;;;;;88.43;55.45;;;7.70;99.90;;;7.66;69.48;103334.84;5072437;28;20466;-60
2022/01/24 07:28:34;;;;;;;85.15;55.08;;;7.50;99.90;;;7.62;70.44;103338.16;5072540;28;20148;-62
2022/01/24 07:31:02;;;;;;;86.83;56.33;;;7.30;99.90;;;7.88;69.91;103341.16;5072485;28;20462;-61
2022/01/24 07:33:30;;;;;;;88.45;56.40;;;7.50;99.90;;;8.04;69.21;103345.41;5073075;28;20098;-61
2022/01/24 07:35:59;;;;;;;85.30;55.95;;;7.70;99.90;;;7.89;68.87;103347.34;5072535;28;20441;-61
2022/01/24 07:38:28;;;;;;;87.38;55.67;;;7.60;99.90;;;7.87;68.67;103349.91;5072429;28;20053;-62
2022/01/24 07:40:59;;;;;;;85.25;56.15;;;7.60;99.90;;;7.74;68.71;103351.91;5072826;28;20083;-61
2022/01/24 07:43:27;;;;;;;89.32;54.90;;;7.50;99.90;;;7.60;69.34;103347.72;5072738;28;20094;-61
2022/01/24 07:45:57;;;;;;;85.70;55.80;;;7.30;99.90;;;7.58;69.46;103358.19;5072542;28;20474;-59
2022/01/24 07:48:26;;;;;;;86.22;54.88;;;7.30;99.90;;;7.55;69.30;103354.50;5071164;28;20061;-61
2022/01/24 07:50:54;;;;;;;83.57;54.80;;;7.30;99.90;;;7.65;68.63;103355.00;5072111;28;20075;-61
2022/01/24 07:53:24;;;;;;;83.88;53.75;;;7.30;99.90;;;7.60;68.55;103345.09;5072755;28;20044;-61
2022/01/24 07:56:13;;;;;;;89.05;56.72;;;7.40;99.90;;;7.30;69.98;103336.59;5072279;28;20354;-61
2022/01/24 07:58:43;;;;;;;91.70;56.90;;;7.10;99.90;;;7.35;69.63;103348.28;5072084;28;20120;-61
2022/01/24 08:01:14;;;;;;;94.28;56.90;;;7.10;99.90;;;7.30;69.88;103352.41;5071864;28;20560;-61
2022/01/24 08:03:44;;;;;;;87.50;53.15;;;7.10;99.90;;;7.30;69.49;103355.94;5071074;28;20131;-61
2022/01/24 08:06:12;;;;;;;90.93;57.40;;;7.00;99.90;;;7.51;69.31;103353.44;5071864;28;20513;-61
2022/01/24 08:08:41;;;;;;;89.53;56.97;;;7.20;99.90;;;7.66;68.81;103359.47;5072413;28;20150;-61
2022/01/24 08:11:09;;;;;;;88.50;56.47;;;7.40;99.90;;;7.58;68.59;103359.91;5071819;28;20131;-61
2022/01/24 08:13:38;;;;;;;90.53;56.13;;;7.30;99.90;;;7.30;69.95;103373.47;5071804;28;20587;-61
2022/01/24 08:16:06;;;;;;;86.95;56.42;;;7.10;99.90;;;7.25;70.17;103360.09;5071711;28;20056;-61
2022/01/24 08:18:36;;;;;;;94.57;58.78;;;7.00;99.90;;;7.14;70.25;103358.66;5071872;28;20032;-61
2022/01/24 08:21:04;;;;;;;94.97;59.57;;;6.90;99.90;;;7.17;70.37;103356.19;5072038;28;20075;-61
2022/01/24 08:23:33;;;;;;;99.22;59.60;;;6.90;99.90;;;7.20;69.61;103342.28;5072053;28;20294;-61
2022/01/24 08:26:01;;;;;;;96.75;61.70;;;7.00;99.90;;;7.30;69.66;103355.94;5070563;28;20430;-61
2022/01/24 08:28:30;;;;;;;100.95;61.50;;;7.00;99.90;;;7.29;70.35;103356.78;5071063;28;20098;-61
2022/01/24 08:30:59;;;;;;;93.53;57.88;;;7.00;99.90;;;7.22;70.14;103349.41;5072235;28;20110;-61
2022/01/24 08:33:28;;;;;;;92.07;57.88;;;7.00;99.90;;;7.21;70.31;103351.97;5071992;28;20044;-61
2022/01/24 08:35:57;;;;;;;90.85;55.67;;;7.00;99.90;;;7.33;70.43;103357.84;5072239;28;20076;-61
2022/01/24 08:38:26;;;;;;;96.57;57.70;;;7.00;99.90;;;6.99;70.45;103335.94;5071863;28;20048;-61
2022/01/24 08:40:56;;;;;;;95.18;57.65;;;6.90;99.90;;;7.01;71.47;103350.06;5072156;28;20189;-61
2022/01/24 08:43:38;;;;;;;96.93;57.22;;;6.80;99.90;;;6.97;71.66;103348.13;5071510;28;20044;-61
2022/01/24 08:46:07;;;;;;;98.38;58.80;;;6.80;99.90;;;6.79;72.47;103357.72;5071841;28;20040;-61
2022/01/24 08:48:36;;;;;;;87.32;54.80;;;6.60;99.90;;;6.67;72.60;103357.09;5071712;28;20048;-61
2022/01/24 08:51:06;;;;;;;88.88;55.33;;;6.50;99.90;;;6.65;72.67;103358.75;5070343;28;20101;-61
2022/01/24 08:53:36;;;;;;;86.57;53.55;;;6.50;99.90;;;6.67;73.14;103365.00;5071708;28;20052;-61
2022/01/24 08:56:07;;;;;;;82.57;51.23;;;6.50;99.90;;;6.79;71.96;103365.63;5071509;28;20207;-61
2022/01/24 08:58:36;;;;;;;89.20;52.33;;;6.60;99.90;;;6.60;71.54;103347.09;5071450;28;20076;-61
2022/01/24 09:01:05;;;;;;;84.10;52.57;;;6.60;99.90;;;6.85;71.33;103360.69;5071555;28;20135;-61
2022/01/24 09:03:39;;;;;;;86.30;53.47;;;6.70;99.90;;;6.76;71.88;103362.81;5071259;28;20045;-61
2022/01/24 09:06:11;;;;;;;85.72;53.78;;;6.60;99.90;;;6.76;72.06;103353.22;5071646;28;20149;-61
2022/01/24 09:08:39;;;;;;;85.18;53.03;;;6.60;99.90;;;6.66;72.17;103360.56;5071795;28;20052;-61
2022/01/24 09:11:07;;;;;;;73.97;47.90;;;6.50;99.90;;;6.49;71.78;103362.31;5071153;28;20450;-61
2022/01/24 09:13:36;;;;;;;84.18;53.55;;;6.40;99.90;;;6.38;72.69;103363.47;5070204;28;20143;-61
2022/01/24 09:16:07;;;;;;;83.70;52.10;;;6.30;99.90;;;6.33;73.01;103367.56;5071757;28;20135;-61
2022/01/24 09:18:36;;;;;;;85.93;55.27;;;6.20;99.90;;;6.42;73.03;103367.16;5071189;28;20044;-61
2022/01/24 09:21:05;;;;;;;79.90;49.47;;;6.20;99.90;;;6.43;71.79;103374.25;5071193;28;20648;-61
2022/01/24 09:23:34;;;;;;;83.85;52.28;;;6.30;99.90;;;6.65;71.07;103362.28;5071335;28;20065;-61
2022/01/24 09:26:04;;;;;;;74.85;48.05;;;6.40;99.90;;;6.68;71.13;103353.66;5069865;28;20056;-60
2022/01/24 09:28:32;;;;;;;82.68;51.45;;;6.50;99.90;;;6.75;71.12;103361.03;5071023;28;20057;-61
2022/01/24 09:31:01;;;;;;;81.03;50.85;;;6.60;99.90;;;6.53;71.49;103363.38;5071215;28;20398;-60
2022/01/24 09:33:30;;;;;;;70.80;44.50;;;6.40;99.90;;;6.30;70.81;103365.72;5070978;28;20486;-60
2022/01/24 09:36:00;;;;;;;68.72;45.42;;;6.30;99.90;;;6.49;70.44;103366.66;5071175;28;20049;-60
2022/01/24 09:38:31;;;;;;;68.15;44.40;;;6.30;99.90;;;6.65;69.89;103366.63;5071699;28;20036;-60
2022/01/24 09:41:04;;;;;;;70.70;45.65;;;6.40;99.90;;;7.00;69.26;103361.44;5074632;28;20462;-60
2022/01/24 09:43:34;;;;;;;67.40;44.53;;;6.70;99.90;;;7.26;68.60;103374.13;5074653;28;20094;-60
2022/01/24 09:46:03;;;;;;;65.35;43.83;;;6.90;99.90;;;7.42;68.04;103368.81;5090520;28;20158;-60
2022/01/24 09:48:32;;;;;;;64.68;43.22;;;7.20;99.90;;;7.51;67.78;103371.88;5074745;28;20076;-60
2022/01/24 09:51:01;;;;;;;78.20;49.92;;;7.30;99.90;;;7.51;68.63;103369.22;5074903;28;20222;-61
2022/01/24 09:53:32;;;;;;;75.50;48.55;;;7.30;99.90;;;7.64;68.93;103369.03;5074630;28;20045;-61
2022/01/24 09:56:04;;;;;;;;;;;7.40;99.90;;;7.61;67.57;103373.22;5074981;28;20041;-61
2022/01/24 09:58:34;;;;;;;72.88;45.28;;;7.50;99.90;;;7.46;68.06;103365.50;5074812;28;20271;-60
2022/01/24 10:01:03;;;;;;;;;;;7.40;99.90;;;7.13;68.68;103374.38;5073859;28;20106;-61
2022/01/24 10:03:32;;;;;;;63.90;40.92;;;7.10;99.90;;;7.22;68.22;103374.81;5074428;28;19924;-61
2022/01/24 10:06:11;;;;;;;62.97;39.67;;;7.10;99.90;;;6.74;68.17;103378.53;5074429;28;20474;-60
2022/01/24 10:08:40;;;;;;;64.15;41.42;;;6.80;99.90;;;6.78;69.58;103382.22;5074657;28;20071;-60
2022/01/24 10:11:17;;;;;;;60.40;40.47;;;6.60;99.90;;;7.12;68.13;103380.47;5074471;28;20397;-60
2022/01/24 10:16:36;;;;;;;63.05;41.08;;;7.10;99.90;;;7.34;67.15;103388.59;5075099;28;20072;-61
2022/01/24 10:19:12;;;;;;;64.32;43.72;;;7.20;99.90;;;7.51;67.90;103390.31;5074518;28;20044;-61
2022/01/24 10:22:01;;;;;;;63.63;43.03;;;7.30;99.90;;;7.82;67.44;103385.66;5073904;28;20037;-60
2022/01/24 10:24:35;;;;;;;62.25;41.42;;;7.50;99.90;;;7.82;66.29;103383.03;5073905;28;20388;-61
2022/01/24 10:27:13;;;;;;;65.28;42.97;;;7.70;99.90;;;7.41;66.75;103388.09;5074282;28;20335;-60
2022/01/24 10:29:45;;;;;;;63.40;43.40;;;7.30;99.90;;;7.76;66.93;103382.75;5073913;28;20052;-61
2022/01/24 10:32:39;;;;;;;66.47;43.65;;;7.50;99.90;;;7.77;66.20;103374.03;5073815;28;20463;-61
2022/01/24 10:35:43;;;;;;;65.75;42.58;;;7.70;99.90;;;7.77;66.01;103395.09;5089639;28;20498;-60
2022/01/24 10:38:24;;;;;;;66.00;43.58;;;7.60;99.90;;;7.48;66.69;103395.44;5012143;28;20101;-61
2022/01/24 10:41:07;;;;;;;66.38;42.67;;;7.40;99.90;;;7.27;68.15;103383.88;5068137;28;20053;-61
2022/01/24 10:43:39;;;;;;;71.32;44.65;;;7.10;99.90;;;7.46;67.48;103381.28;5073726;28;20072;-61
2022/01/24 10:46:09;;;;;;;70.05;45.92;;;7.30;99.90;;;7.36;67.81;103384.31;5072396;28;20659;-61
2022/01/24 10:48:40;;;;;;;70.90;46.03;;;7.20;99.90;;;7.05;68.49;103373.09;5089207;28;20048;-61
2022/01/24 10:51:14;;;;;;;75.32;46.83;;;6.90;99.90;;;6.93;68.64;103361.97;5072921;28;20047;-61
2022/01/24 10:53:46;;;;;;;71.00;45.65;;;6.80;99.90;;;6.63;69.60;103373.53;5073296;28;20119;-60
2022/01/24 10:56:35;;;;;;;73.63;45.72;;;6.60;99.90;;;6.96;69.28;103368.28;5073324;28;20060;-61
2022/01/24 10:59:18;;;;;;;71.88;45.45;;;6.70;99.90;;;7.16;69.12;103367.53;5073325;28;20474;-61
2022/01/24 11:01:51;;;;;;;68.95;45.22;;;6.90;99.90;;;7.16;69.69;103367.53;5073149;28;20052;-60
2022/01/24 11:04:23;;;;;;;74.97;45.42;;;6.90;99.90;;;6.91;69.70;103363.63;5073126;28;20040;-60
2022/01/24 11:06:55;;;;;;;72.80;46.80;;;6.80;99.90;;;7.11;69.77;103355.88;5073411;28;20071;-61
2022/01/24 11:09:27;;;;;;;73.53;47.25;;;6.90;99.90;;;7.13;69.66;103351.59;5073472;28;20449;-61
2022/01/24 11:12:00;;;;;;;71.05;45.65;;;6.90;99.90;;;6.70;70.58;103350.25;5073104;28;20452;-61
2022/01/24 11:14:31;;;;;;;72.65;46.72;;;6.70;99.90;;;6.38;70.07;103350.34;5072996;28;20444;-60
2022/01/24 11:17:01;;;;;;;70.07;45.95;;;6.30;99.90;;;6.32;71.27;103350.94;5073179;28;20060;-61
2022/01/24 11:19:37;;;;;;;73.05;45.58;;;6.20;99.90;;;6.41;70.37;103344.34;5088658;28;20376;-61
2022/01/24 11:22:18;;;;;;;69.88;45.55;;;6.20;99.90;;;6.43;70.31;103353.22;5072539;28;20044;-61
2022/01/24 11:24:54;;;;;;;73.40;46.05;;;6.30;99.90;;;6.47;70.57;103349.91;5072415;28;20052;-62
2022/01/24 11:27:41;;;;;;;72.60;45.13;;;6.30;99.90;;;6.77;69.33;103340.97;5072846;28;20121;-62
2022/01/24 11:30:14;;;;;;;66.97;45.08;;;6.60;99.90;;;6.96;68.80;103343.69;5072719;28;20067;-63
2022/01/24 11:32:50;;;;;;;69.88;44.72;;;6.70;99.90;;;7.35;67.96;103340.38;5072732;28;20035;-62
2022/01/24 11:35:40;;;;;;;74.38;47.65;;;7.00;99.90;;;7.65;67.62;103339.19;5073014;28;20041;-61
2022/01/24 11:38:30;;;;;;;68.05;45.80;;;7.40;99.90;;;7.86;67.11;103350.72;5072641;28;20049;-61